Briefing drone pour Chambery (LFLB)

Rechercher une autre localisation

Conditions de vol :


Nous sommes le : Jeudi 26 mai 2022
Il est 04:09 UTC (06:09 LT)

Lever de soleil : 03:28 UTC (05:28 LT)
Coucher de soleil : 19:38 UTC (21:38 LT)

Météo

L'essentiel des conditions de vol

VIGILANCE MÉTÉO FRANCE - Savoie (73)
Pas de vigilances particulieres
CARTE TEMSI
CARTES DES FRONTS
METAR de LFLB
LFLB 260400Z AUTO VRB02KT CAVOK 12/08 Q1023 NOSIG

Date d'émission: 26/05/2022
Heure d'émission: 04:00 UTC
Vent: Variable 2 KT (4 km/h)
Visibilité horizontale: > 10 km
Plafond : Plafond et visibilité OK (CAVOK)
Température: 12 °C
Point de rosée: 8 °C
Humidité: 77%
Pression (QNH): 1023 hPa
Conditions: Pas de changement dans les 2 heures (NOSIG)
TAF de LFLB
LFLB 260200Z 2603/2703 36008KT CAVOK

Conditions prévues :

Heure d'émission : Bulletin éffectué le 26 à 03:00 UTC
Prévision : Valide du 26 a 03:00 UTC au 27 a 03:00 UTC
Vent : 360° pour 8 KT (15 km/h)
Visibilité : > 10 km
WEBCAM POUR CHAMBERY

Réglementation

Voler en sécurité

CARTES AERONAUTIQUE 1/500.000
CARTES VAC (LFLB)
SUP AIP




Chargement des AIP...
NOTAM (CHAMBERY + Terrain à proximité / FIR )




Chargement des NOTAMS...
CONTACT PREFECTURE 73


Avertissement : Les données mises à disposition sont indicatives. Oxygène Drone ne pourra être tenu responsable de dégâts causés aux biens et aux personnes.